sensor_id;sensor_type;location;lat;lon;timestamp;pressure;altitude;pressure_sealevel;temperature;humidity
15674;BME280;7937;48.090;16.212;2023-02-21T00:01:58;97768.28;;;10.49;47.81
15674;BME280;7937;48.090;16.212;2023-02-21T00:05:18;97760.34;;;10.66;46.96
15674;BME280;7937;48.090;16.212;2023-02-21T00:08:39;97765.91;;;10.64;47.05
15674;BME280;7937;48.090;16.212;2023-02-21T00:12:00;97759.63;;;10.70;46.89
15674;BME280;7937;48.090;16.212;2023-02-21T00:15:20;97770.31;;;10.58;47.46
15674;BME280;7937;48.090;16.212;2023-02-21T00:18:41;97731.31;;;10.36;46.71
15674;BME280;7937;48.090;16.212;2023-02-21T00:22:01;97764.06;;;10.65;47.09
15674;BME280;7937;48.090;16.212;2023-02-21T00:25:22;97767.97;;;10.45;48.81
15674;BME280;7937;48.090;16.212;2023-02-21T00:28:43;97780.34;;;10.11;48.41
15674;BME280;7937;48.090;16.212;2023-02-21T00:32:03;97764.31;;;10.23;48.08
15674;BME280;7937;48.090;16.212;2023-02-21T00:35:25;97767.63;;;10.42;47.43
15674;BME280;7937;48.090;16.212;2023-02-21T00:38:46;97769.94;;;10.38;48.29
15674;BME280;7937;48.090;16.212;2023-02-21T00:42:06;97781.31;;;10.33;48.50
15674;BME280;7937;48.090;16.212;2023-02-21T00:45:27;97748.16;;;10.13;47.83
15674;BME280;7937;48.090;16.212;2023-02-21T00:48:48;97745.50;;;10.13;48.05
15674;BME280;7937;48.090;16.212;2023-02-21T00:52:08;97761.44;;;10.24;47.33
15674;BME280;7937;48.090;16.212;2023-02-21T00:55:29;97776.19;;;10.44;47.00
15674;BME280;7937;48.090;16.212;2023-02-21T00:58:49;97768.19;;;10.44;46.88
15674;BME280;7937;48.090;16.212;2023-02-21T01:02:11;97776.53;;;10.47;47.06
15674;BME280;7937;48.090;16.212;2023-02-21T01:05:31;97775.53;;;10.37;47.57
15674;BME280;7937;48.090;16.212;2023-02-21T01:08:52;97767.59;;;10.25;48.22
15674;BME280;7937;48.090;16.212;2023-02-21T01:12:12;97726.03;;;9.83;47.65
15674;BME280;7937;48.090;16.212;2023-02-21T01:15:33;97780.41;;;10.28;46.96
15674;BME280;7937;48.090;16.212;2023-02-21T01:18:54;97774.41;;;10.21;48.54
15674;BME280;7937;48.090;16.212;2023-02-21T01:22:15;97763.81;;;9.97;49.14
15674;BME280;7937;48.090;16.212;2023-02-21T01:25:36;97728.41;;;9.56;49.09
15674;BME280;7937;48.090;16.212;2023-02-21T01:28:56;97764.25;;;10.06;47.51
15674;BME280;7937;48.090;16.212;2023-02-21T01:32:17;97762.16;;;10.08;47.50
15674;BME280;7937;48.090;16.212;2023-02-21T01:35:38;97774.22;;;10.11;47.09
15674;BME280;7937;48.090;16.212;2023-02-21T01:38:59;97744.13;;;9.98;48.28
15674;BME280;7937;48.090;16.212;2023-02-21T01:42:20;97753.53;;;9.89;47.78
15674;BME280;7937;48.090;16.212;2023-02-21T01:45:49;97754.44;;;9.95;47.64
15674;BME280;7937;48.090;16.212;2023-02-21T01:49:15;97746.19;;;10.08;47.62
15674;BME280;7937;48.090;16.212;2023-02-21T01:52:38;97756.09;;;9.96;47.87
15674;BME280;7937;48.090;16.212;2023-02-21T01:55:59;97758.06;;;9.89;47.78
15674;BME280;7937;48.090;16.212;2023-02-21T01:59:22;97752.63;;;9.95;46.64
15674;BME280;7937;48.090;16.212;2023-02-21T02:02:57;97745.75;;;9.99;46.71
15674;BME280;7937;48.090;16.212;2023-02-21T02:06:18;97756.28;;;10.06;46.65
15674;BME280;7937;48.090;16.212;2023-02-21T02:09:39;97755.59;;;9.99;46.01
15674;BME280;7937;48.090;16.212;2023-02-21T02:13:28;97760.22;;;10.03;45.81
15674;BME280;7937;48.090;16.212;2023-02-21T02:16:44;97767.84;;;10.00;46.05
15674;BME280;7937;48.090;16.212;2023-02-21T02:20:42;97765.16;;;10.12;45.90
15674;BME280;7937;48.090;16.212;2023-02-21T02:30:21;97752.56;;;10.07;46.65
15674;BME280;7937;48.090;16.212;2023-02-21T02:44:24;97734.59;;;9.74;47.09
15674;BME280;7937;48.090;16.212;2023-02-21T02:47:33;97721.19;;;9.80;46.42
15674;BME280;7937;48.090;16.212;2023-02-21T02:50:38;97715.16;;;9.73;46.89
15674;BME280;7937;48.090;16.212;2023-02-21T02:53:40;97722.78;;;9.81;46.52
15674;BME280;7937;48.090;16.212;2023-02-21T02:56:44;97723.69;;;9.87;46.90
15674;BME280;7937;48.090;16.212;2023-02-21T02:59:47;97720.78;;;9.89;46.32
15674;BME280;7937;48.090;16.212;2023-02-21T03:06:26;97717.84;;;9.73;46.75
15674;BME280;7937;48.090;16.212;2023-02-21T03:13:04;97723.16;;;9.73;47.36
15674;BME280;7937;48.090;16.212;2023-02-21T03:19:20;97728.38;;;9.68;46.73
15674;BME280;7937;48.090;16.212;2023-02-21T03:22:25;97728.63;;;9.67;47.08
15674;BME280;7937;48.090;16.212;2023-02-21T03:25:32;97731.03;;;9.68;46.91
15674;BME280;7937;48.090;16.212;2023-02-21T03:28:37;97730.78;;;9.70;46.54
15674;BME280;7937;48.090;16.212;2023-02-21T03:31:44;97709.03;;;9.73;46.65
15674;BME280;7937;48.090;16.212;2023-02-21T03:34:48;97711.72;;;9.73;47.10
15674;BME280;7937;48.090;16.212;2023-02-21T03:37:52;97705.81;;;9.71;46.67
15674;BME280;7937;48.090;16.212;2023-02-21T03:40:58;97720.06;;;9.53;47.80
15674;BME280;7937;48.090;16.212;2023-02-21T03:44:00;97706.63;;;9.71;46.89
15674;BME280;7937;48.090;16.212;2023-02-21T03:47:02;97719.38;;;9.57;47.10
15674;BME280;7937;48.090;16.212;2023-02-21T03:50:04;97705.72;;;9.54;47.57
15674;BME280;7937;48.090;16.212;2023-02-21T03:53:11;97709.44;;;9.53;47.27
15674;BME280;7937;48.090;16.212;2023-02-21T03:56:17;97712.66;;;9.55;47.56
15674;BME280;7937;48.090;16.212;2023-02-21T03:59:41;97683.00;;;9.35;47.55
15674;BME280;7937;48.090;16.212;2023-02-21T04:02:44;97693.84;;;9.56;47.47
15674;BME280;7937;48.090;16.212;2023-02-21T04:05:57;97710.38;;;9.47;48.08
15674;BME280;7937;48.090;16.212;2023-02-21T04:09:00;97710.69;;;9.50;47.69
15674;BME280;7937;48.090;16.212;2023-02-21T04:12:02;97701.00;;;9.44;47.86
15674;BME280;7937;48.090;16.212;2023-02-21T04:15:05;97695.72;;;9.33;48.16
15674;BME280;7937;48.090;16.212;2023-02-21T04:18:08;97697.09;;;9.35;48.02
15674;BME280;7937;48.090;16.212;2023-02-21T04:21:16;97709.47;;;9.41;47.91
15674;BME280;7937;48.090;16.212;2023-02-21T04:24:18;97726.69;;;9.39;48.53
15674;BME280;7937;48.090;16.212;2023-02-21T04:27:20;97704.00;;;9.48;47.72
15674;BME280;7937;48.090;16.212;2023-02-21T04:30:27;97709.34;;;9.36;48.03
15674;BME280;7937;48.090;16.212;2023-02-21T04:33:29;97713.75;;;9.42;48.04
15674;BME280;7937;48.090;16.212;2023-02-21T04:36:31;97715.13;;;9.33;48.28
15674;BME280;7937;48.090;16.212;2023-02-21T04:39:34;97710.97;;;9.37;48.50
15674;BME280;7937;48.090;16.212;2023-02-21T04:42:36;97714.22;;;9.27;48.96
15674;BME280;7937;48.090;16.212;2023-02-21T04:45:38;97719.53;;;9.27;49.08
15674;BME280;7937;48.090;16.212;2023-02-21T04:48:43;97700.91;;;9.16;49.70
15674;BME280;7937;48.090;16.212;2023-02-21T04:51:46;97707.38;;;9.20;49.49
15674;BME280;7937;48.090;16.212;2023-02-21T04:54:48;97719.66;;;9.09;50.48
15674;BME280;7937;48.090;16.212;2023-02-21T04:57:49;97659.91;;;8.76;49.66
15674;BME280;7937;48.090;16.212;2023-02-21T05:00:51;97713.28;;;9.10;49.68
15674;BME280;7937;48.090;16.212;2023-02-21T05:03:53;97711.44;;;8.99;49.96
15674;BME280;7937;48.090;16.212;2023-02-21T05:06:58;97709.81;;;8.98;50.08
15674;BME280;7937;48.090;16.212;2023-02-21T05:10:00;97705.19;;;9.05;50.42
15674;BME280;7937;48.090;16.212;2023-02-21T05:13:02;97671.47;;;8.82;50.69
15674;BME280;7937;48.090;16.212;2023-02-21T05:16:05;97703.81;;;9.02;49.88
15674;BME280;7937;48.090;16.212;2023-02-21T05:19:07;97709.03;;;8.97;50.34
15674;BME280;7937;48.090;16.212;2023-02-21T05:22:09;97708.22;;;9.09;49.93
15674;BME280;7937;48.090;16.212;2023-02-21T05:25:16;97703.81;;;9.14;49.54
15674;BME280;7937;48.090;16.212;2023-02-21T05:28:19;97702.75;;;9.15;49.79
15674;BME280;7937;48.090;16.212;2023-02-21T05:31:22;97698.25;;;9.16;49.88
15674;BME280;7937;48.090;16.212;2023-02-21T05:34:24;97703.47;;;9.11;49.98
15674;BME280;7937;48.090;16.212;2023-02-21T05:37:26;97700.47;;;9.07;50.22
15674;BME280;7937;48.090;16.212;2023-02-21T05:40:31;97701.84;;;9.10;50.08
15674;BME280;7937;48.090;16.212;2023-02-21T05:43:33;97701.28;;;9.08;50.47
15674;BME280;7937;48.090;16.212;2023-02-21T05:46:35;97703.25;;;9.12;50.11
15674;BME280;7937;48.090;16.212;2023-02-21T05:49:37;97722.75;;;9.06;50.68
15674;BME280;7937;48.090;16.212;2023-02-21T05:52:39;97714.09;;;9.11;50.22
15674;BME280;7937;48.090;16.212;2023-02-21T05:55:41;97673.41;;;8.75;50.35
15674;BME280;7937;48.090;16.212;2023-02-21T05:58:43;97701.38;;;9.01;50.93
15674;BME280;7937;48.090;16.212;2023-02-21T06:01:47;97701.63;;;8.99;50.64
15674;BME280;7937;48.090;16.212;2023-02-21T06:04:49;97747.50;;;9.07;50.21
15674;BME280;7937;48.090;16.212;2023-02-21T06:07:51;97712.84;;;9.13;50.26
15674;BME280;7937;48.090;16.212;2023-02-21T06:10:53;97692.97;;;8.92;50.09
15674;BME280;7937;48.090;16.212;2023-02-21T06:13:56;97716.63;;;9.05;50.82
15674;BME280;7937;48.090;16.212;2023-02-21T06:16:59;97704.38;;;9.04;50.42
15674;BME280;7937;48.090;16.212;2023-02-21T06:20:02;97721.13;;;9.05;50.42
15674;BME280;7937;48.090;16.212;2023-02-21T06:23:04;97739.97;;;9.03;50.45
15674;BME280;7937;48.090;16.212;2023-02-21T06:26:06;97726.34;;;9.12;50.06
15674;BME280;7937;48.090;16.212;2023-02-21T06:29:09;97733.50;;;9.11;49.88
15674;BME280;7937;48.090;16.212;2023-02-21T06:32:11;97727.38;;;9.11;50.38
15674;BME280;7937;48.090;16.212;2023-02-21T06:35:13;97730.03;;;9.11;49.92
15674;BME280;7937;48.090;16.212;2023-02-21T06:38:16;97762.88;;;9.16;50.21
15674;BME280;7937;48.090;16.212;2023-02-21T06:41:19;97759.75;;;9.08;50.46
15674;BME280;7937;48.090;16.212;2023-02-21T06:44:21;97755.47;;;9.07;50.11
15674;BME280;7937;48.090;16.212;2023-02-21T06:47:23;97751.09;;;9.12;50.57
15674;BME280;7937;48.090;16.212;2023-02-21T06:50:26;97758.69;;;9.09;50.24
15674;BME280;7937;48.090;16.212;2023-02-21T06:53:28;97765.38;;;9.11;50.41
15674;BME280;7937;48.090;16.212;2023-02-21T06:56:30;97771.19;;;9.08;50.23
15674;BME280;7937;48.090;16.212;2023-02-21T06:59:32;97763.44;;;9.07;50.39
15674;BME280;7937;48.090;16.212;2023-02-21T07:02:34;97777.19;;;9.15;50.14
15674;BME280;7937;48.090;16.212;2023-02-21T07:05:36;97778.22;;;9.14;50.27
15674;BME280;7937;48.090;16.212;2023-02-21T07:08:39;97748.41;;;9.00;50.62
15674;BME280;7937;48.090;16.212;2023-02-21T07:11:41;97778.47;;;9.13;50.04
15674;BME280;7937;48.090;16.212;2023-02-21T07:14:43;97782.63;;;9.20;50.68
15674;BME280;7937;48.090;16.212;2023-02-21T07:17:45;97787.00;;;9.15;50.57
15674;BME280;7937;48.090;16.212;2023-02-21T07:20:47;97784.47;;;9.20;50.48
15674;BME280;7937;48.090;16.212;2023-02-21T07:23:50;97792.78;;;9.23;51.11
15674;BME280;7937;48.090;16.212;2023-02-21T07:26:52;97762.72;;;9.11;51.19
15674;BME280;7937;48.090;16.212;2023-02-21T07:29:54;97776.59;;;9.25;50.64
15674;BME280;7937;48.090;16.212;2023-02-21T07:32:56;97791.19;;;9.34;51.30
15674;BME280;7937;48.090;16.212;2023-02-21T07:35:59;97787.25;;;9.25;51.78
15674;BME280;7937;48.090;16.212;2023-02-21T07:39:01;97784.59;;;9.37;51.06
15674;BME280;7937;48.090;16.212;2023-02-21T07:42:04;97792.00;;;9.35;50.58
15674;BME280;7937;48.090;16.212;2023-02-21T07:45:06;97800.31;;;9.50;50.78
15674;BME280;7937;48.090;16.212;2023-02-21T07:48:08;97798.91;;;9.59;51.20
15674;BME280;7937;48.090;16.212;2023-02-21T07:51:10;97800.09;;;9.51;51.17
15674;BME280;7937;48.090;16.212;2023-02-21T07:54:12;97800.66;;;9.65;50.21
15674;BME280;7937;48.090;16.212;2023-02-21T07:57:15;97800.06;;;9.75;50.75
15674;BME280;7937;48.090;16.212;2023-02-21T08:00:18;97794.53;;;9.76;50.15
15674;BME280;7937;48.090;16.212;2023-02-21T08:03:20;97779.94;;;9.79;50.42
15674;BME280;7937;48.090;16.212;2023-02-21T08:06:22;97801.00;;;9.80;50.16
15674;BME280;7937;48.090;16.212;2023-02-21T08:09:24;97793.56;;;9.94;49.69
15674;BME280;7937;48.090;16.212;2023-02-21T08:12:26;97786.63;;;9.93;50.60
15674;BME280;7937;48.090;16.212;2023-02-21T08:15:28;97771.34;;;9.89;50.63
15674;BME280;7937;48.090;16.212;2023-02-21T08:18:30;97790.28;;;10.16;49.35
15674;BME280;7937;48.090;16.212;2023-02-21T08:21:32;97812.25;;;10.35;49.07
15674;BME280;7937;48.090;16.212;2023-02-21T08:24:34;97816.81;;;10.51;48.84
15674;BME280;7937;48.090;16.212;2023-02-21T08:27:40;97816.25;;;10.94;47.82
15674;BME280;7937;48.090;16.212;2023-02-21T08:30:43;97826.63;;;11.58;46.15
15674;BME280;7937;48.090;16.212;2023-02-21T08:33:45;97820.25;;;12.20;44.50
15674;BME280;7937;48.090;16.212;2023-02-21T08:36:47;97818.59;;;13.91;41.83
15674;BME280;7937;48.090;16.212;2023-02-21T08:39:50;97844.47;;;15.06;38.80
15674;BME280;7937;48.090;16.212;2023-02-21T08:42:53;97811.13;;;14.61;39.05
15674;BME280;7937;48.090;16.212;2023-02-21T08:45:55;97826.50;;;13.65;40.80
15674;BME280;7937;48.090;16.212;2023-02-21T08:48:57;97823.88;;;13.38;41.81
15674;BME280;7937;48.090;16.212;2023-02-21T08:51:59;97823.69;;;12.86;42.41
15674;BME280;7937;48.090;16.212;2023-02-21T08:55:04;97822.34;;;12.88;42.71
15674;BME280;7937;48.090;16.212;2023-02-21T08:58:09;97828.44;;;12.57;43.09
15674;BME280;7937;48.090;16.212;2023-02-21T09:01:12;97823.69;;;12.64;43.80
15674;BME280;7937;48.090;16.212;2023-02-21T09:04:14;97830.25;;;12.51;43.75
15674;BME280;7937;48.090;16.212;2023-02-21T09:07:18;97829.44;;;12.51;43.58
15674;BME280;7937;48.090;16.212;2023-02-21T09:10:20;97822.25;;;12.51;43.78
15674;BME280;7937;48.090;16.212;2023-02-21T09:13:23;97818.63;;;12.62;43.44
15674;BME280;7937;48.090;16.212;2023-02-21T09:16:24;97831.66;;;12.81;43.38
15674;BME280;7937;48.090;16.212;2023-02-21T09:19:26;97866.75;;;12.89;43.87
15674;BME280;7937;48.090;16.212;2023-02-21T09:22:28;97867.91;;;12.99;43.23
15674;BME280;7937;48.090;16.212;2023-02-21T09:25:32;97858.84;;;13.05;43.06
15674;BME280;7937;48.090;16.212;2023-02-21T09:28:34;97846.81;;;13.02;42.67
15674;BME280;7937;48.090;16.212;2023-02-21T09:31:36;97835.66;;;13.10;43.07
15674;BME280;7937;48.090;16.212;2023-02-21T09:34:38;97799.44;;;12.71;42.88
15674;BME280;7937;48.090;16.212;2023-02-21T09:37:41;97842.59;;;13.06;43.23
15674;BME280;7937;48.090;16.212;2023-02-21T09:40:58;97845.34;;;13.16;43.09
15674;BME280;7937;48.090;16.212;2023-02-21T09:44:03;97837.25;;;13.76;42.83
15674;BME280;7937;48.090;16.212;2023-02-21T09:47:08;97874.50;;;14.25;40.67
15674;BME280;7937;48.090;16.212;2023-02-21T09:50:16;97854.25;;;13.59;40.43
15674;BME280;7937;48.090;16.212;2023-02-21T09:53:26;97824.72;;;13.81;40.51
15674;BME280;7937;48.090;16.212;2023-02-21T09:56:35;97840.78;;;14.29;39.81
15674;BME280;7937;48.090;16.212;2023-02-21T09:59:39;97836.06;;;14.61;39.92
15674;BME280;7937;48.090;16.212;2023-02-21T10:16:36;97833.94;;;14.58;39.09
15674;BME280;7937;48.090;16.212;2023-02-21T10:19:43;97836.44;;;15.06;38.46
15674;BME280;7937;48.090;16.212;2023-02-21T10:22:47;97852.03;;;15.44;37.56
15674;BME280;7937;48.090;16.212;2023-02-21T10:25:56;97830.53;;;15.60;37.81
15674;BME280;7937;48.090;16.212;2023-02-21T10:28:59;97843.69;;;15.56;36.77
15674;BME280;7937;48.090;16.212;2023-02-21T10:32:02;97856.03;;;15.16;37.69
15674;BME280;7937;48.090;16.212;2023-02-21T10:35:05;97842.88;;;15.15;36.88
15674;BME280;7937;48.090;16.212;2023-02-21T10:38:16;97835.34;;;15.07;38.28
15674;BME280;7937;48.090;16.212;2023-02-21T10:41:20;97828.94;;;15.08;38.24
15674;BME280;7937;48.090;16.212;2023-02-21T10:44:27;97843.69;;;15.51;37.90
15674;BME280;7937;48.090;16.212;2023-02-21T10:48:09;97824.66;;;15.42;38.66
15674;BME280;7937;48.090;16.212;2023-02-21T10:51:16;97827.63;;;15.71;37.65
15674;BME280;7937;48.090;16.212;2023-02-21T10:54:28;97830.31;;;15.71;37.69
15674;BME280;7937;48.090;16.212;2023-02-21T10:57:32;97831.34;;;15.50;38.34
15674;BME280;7937;48.090;16.212;2023-02-21T11:00:40;97825.97;;;15.30;37.95
15674;BME280;7937;48.090;16.212;2023-02-21T11:03:51;97791.06;;;15.50;37.73
15674;BME280;7937;48.090;16.212;2023-02-21T11:06:55;97825.72;;;15.62;38.47
15674;BME280;7937;48.090;16.212;2023-02-21T11:09:58;97800.69;;;15.92;37.36
15674;BME280;7937;48.090;16.212;2023-02-21T11:13:15;97820.03;;;15.94;37.61
15674;BME280;7937;48.090;16.212;2023-02-21T11:16:19;97799.88;;;16.02;37.55
15674;BME280;7937;48.090;16.212;2023-02-21T11:19:22;97798.47;;;16.09;37.92
15674;BME280;7937;48.090;16.212;2023-02-21T11:22:35;97798.53;;;15.99;37.18
15674;BME280;7937;48.090;16.212;2023-02-21T11:25:38;97790.47;;;15.99;38.22
15674;BME280;7937;48.090;16.212;2023-02-21T11:28:42;97775.50;;;15.37;39.29
15674;BME280;7937;48.090;16.212;2023-02-21T11:31:45;97780.06;;;15.62;39.68
15674;BME280;7937;48.090;16.212;2023-02-21T11:34:48;97769.59;;;15.65;39.26
15674;BME280;7937;48.090;16.212;2023-02-21T11:40:55;97753.78;;;15.38;40.91
15674;BME280;7937;48.090;16.212;2023-02-21T11:43:57;97759.19;;;15.03;40.21
15674;BME280;7937;48.090;16.212;2023-02-21T11:50:26;97766.41;;;14.92;41.23
15674;BME280;7937;48.090;16.212;2023-02-21T11:53:43;97770.72;;;15.18;41.21
15674;BME280;7937;48.090;16.212;2023-02-21T12:00:26;97736.34;;;14.59;42.00
15674;BME280;7937;48.090;16.212;2023-02-21T12:07:27;97774.44;;;14.77;42.05
15674;BME280;7937;48.090;16.212;2023-02-21T12:11:01;97766.38;;;14.77;41.95
15674;BME280;7937;48.090;16.212;2023-02-21T12:14:37;97760.50;;;14.95;41.88
15674;BME280;7937;48.090;16.212;2023-02-21T12:21:12;97768.03;;;14.83;41.82
15674;BME280;7937;48.090;16.212;2023-02-21T12:28:15;97757.69;;;14.29;44.30
15674;BME280;7937;48.090;16.212;2023-02-21T12:38:07;97751.59;;;14.49;43.22
15674;BME280;7937;48.090;16.212;2023-02-21T12:41:32;97743.31;;;14.55;43.23
15674;BME280;7937;48.090;16.212;2023-02-21T12:48:40;97739.03;;;14.54;43.01
15674;BME280;7937;48.090;16.212;2023-02-21T12:52:18;97728.31;;;14.80;43.07
15674;BME280;7937;48.090;16.212;2023-02-21T12:55:25;97731.28;;;14.88;42.80
15674;BME280;7937;48.090;16.212;2023-02-21T13:05:37;97709.00;;;15.03;42.97
15674;BME280;7937;48.090;16.212;2023-02-21T13:12:03;97703.66;;;14.93;42.75
15674;BME280;7937;48.090;16.212;2023-02-21T13:15:17;97699.63;;;14.80;43.16
15674;BME280;7937;48.090;16.212;2023-02-21T13:18:23;97706.31;;;15.03;42.87
15674;BME280;7937;48.090;16.212;2023-02-21T13:25:03;97699.91;;;14.74;42.85
15674;BME280;7937;48.090;16.212;2023-02-21T13:28:17;97701.50;;;14.75;42.75
15674;BME280;7937;48.090;16.212;2023-02-21T13:31:27;97705.50;;;14.67;43.63
15674;BME280;7937;48.090;16.212;2023-02-21T13:34:46;97697.47;;;14.67;43.54
15674;BME280;7937;48.090;16.212;2023-02-21T13:37:50;97694.78;;;14.57;43.84
15674;BME280;7937;48.090;16.212;2023-02-21T13:41:08;97690.97;;;14.42;44.92
15674;BME280;7937;48.090;16.212;2023-02-21T13:44:24;97689.63;;;14.30;44.80
15674;BME280;7937;48.090;16.212;2023-02-21T13:51:00;97696.06;;;14.39;44.97
15674;BME280;7937;48.090;16.212;2023-02-21T13:54:11;97692.81;;;14.22;44.83
15674;BME280;7937;48.090;16.212;2023-02-21T13:57:30;97711.00;;;14.04;44.73
15674;BME280;7937;48.090;16.212;2023-02-21T14:03:34;97710.34;;;13.77;46.13
15674;BME280;7937;48.090;16.212;2023-02-21T14:06:36;97701.78;;;13.75;45.82
15674;BME280;7937;48.090;16.212;2023-02-21T14:09:40;97680.34;;;13.70;45.47
15674;BME280;7937;48.090;16.212;2023-02-21T14:12:43;97655.91;;;13.51;46.16
15674;BME280;7937;48.090;16.212;2023-02-21T14:15:49;97715.84;;;13.50;46.10
15674;BME280;7937;48.090;16.212;2023-02-21T14:19:01;97699.53;;;13.51;46.44
15674;BME280;7937;48.090;16.212;2023-02-21T14:22:20;97713.97;;;13.45;46.31
15674;BME280;7937;48.090;16.212;2023-02-21T14:25:25;97702.38;;;13.39;46.56
15674;BME280;7937;48.090;16.212;2023-02-21T14:35:00;97663.22;;;12.81;47.93
15674;BME280;7937;48.090;16.212;2023-02-21T14:38:06;97712.63;;;13.10;47.86
15674;BME280;7937;48.090;16.212;2023-02-21T14:41:45;97711.25;;;13.08;48.07
15674;BME280;7937;48.090;16.212;2023-02-21T14:45:17;97694.63;;;12.96;48.28
15674;BME280;7937;48.090;16.212;2023-02-21T14:55:30;97696.19;;;12.91;48.40
15674;BME280;7937;48.090;16.212;2023-02-21T15:08:41;97661.78;;;12.68;48.64
15674;BME280;7937;48.090;16.212;2023-02-21T15:11:45;97696.66;;;12.83;48.90
15674;BME280;7937;48.090;16.212;2023-02-21T15:14:51;97685.59;;;12.75;49.58
15674;BME280;7937;48.090;16.212;2023-02-21T15:18:02;97681.97;;;12.54;50.26
15674;BME280;7937;48.090;16.212;2023-02-21T15:21:15;97678.72;;;12.47;50.58
15674;BME280;7937;48.090;16.212;2023-02-21T15:24:19;97673.28;;;12.36;50.32
15674;BME280;7937;48.090;16.212;2023-02-21T15:27:21;97665.41;;;12.25;50.56
15674;BME280;7937;48.090;16.212;2023-02-21T15:30:24;97680.41;;;12.31;50.56
15674;BME280;7937;48.090;16.212;2023-02-21T15:33:31;97687.03;;;12.23;50.74
15674;BME280;7937;48.090;16.212;2023-02-21T15:36:34;97676.59;;;12.22;51.07
15674;BME280;7937;48.090;16.212;2023-02-21T15:39:39;97681.06;;;12.16;51.54
15674;BME280;7937;48.090;16.212;2023-02-21T15:42:44;97691.47;;;12.12;51.40
15674;BME280;7937;48.090;16.212;2023-02-21T15:45:48;97678.13;;;12.12;51.58
15674;BME280;7937;48.090;16.212;2023-02-21T15:48:53;97672.66;;;12.02;52.35
15674;BME280;7937;48.090;16.212;2023-02-21T15:51:57;97678.00;;;12.02;52.60
15674;BME280;7937;48.090;16.212;2023-02-21T15:58:21;97684.28;;;11.91;52.78
15674;BME280;7937;48.090;16.212;2023-02-21T16:01:24;97684.75;;;11.83;53.54
15674;BME280;7937;48.090;16.212;2023-02-21T16:04:36;97684.75;;;11.83;53.14
15674;BME280;7937;48.090;16.212;2023-02-21T16:07:39;97682.06;;;11.83;52.93
15674;BME280;7937;48.090;16.212;2023-02-21T16:10:42;97687.75;;;11.70;53.75
15674;BME280;7937;48.090;16.212;2023-02-21T16:13:45;97687.03;;;11.57;54.54
15674;BME280;7937;48.090;16.212;2023-02-21T16:17:04;97688.22;;;11.45;55.13
15674;BME280;7937;48.090;16.212;2023-02-21T16:20:31;97671.31;;;11.17;54.83
15674;BME280;7937;48.090;16.212;2023-02-21T16:23:38;97695.22;;;11.29;55.36
15674;BME280;7937;48.090;16.212;2023-02-21T16:26:41;97693.69;;;11.33;55.29
15674;BME280;7937;48.090;16.212;2023-02-21T16:29:43;97691.97;;;11.27;55.63
15674;BME280;7937;48.090;16.212;2023-02-21T16:32:47;97698.03;;;11.22;55.23
15674;BME280;7937;48.090;16.212;2023-02-21T16:35:49;97702.56;;;11.22;55.22
15674;BME280;7937;48.090;16.212;2023-02-21T16:38:52;97705.75;;;11.19;55.87
15674;BME280;7937;48.090;16.212;2023-02-21T16:41:56;97696.47;;;11.04;56.09
15674;BME280;7937;48.090;16.212;2023-02-21T16:44:58;97693.66;;;10.94;56.25
15674;BME280;7937;48.090;16.212;2023-02-21T16:48:04;97712.53;;;11.09;56.17
15674;BME280;7937;48.090;16.212;2023-02-21T16:51:11;97719.81;;;10.97;56.07
15674;BME280;7937;48.090;16.212;2023-02-21T16:54:17;97716.84;;;10.94;56.27
15674;BME280;7937;48.090;16.212;2023-02-21T16:57:20;97712.41;;;10.99;56.38
15674;BME280;7937;48.090;16.212;2023-02-21T17:00:24;97723.84;;;11.00;56.60
15674;BME280;7937;48.090;16.212;2023-02-21T17:03:29;97685.09;;;10.75;56.32
15674;BME280;7937;48.090;16.212;2023-02-21T17:06:39;97723.53;;;10.96;56.48
15674;BME280;7937;48.090;16.212;2023-02-21T17:09:43;97732.97;;;10.87;56.86
15674;BME280;7937;48.090;16.212;2023-02-21T17:12:45;97729.09;;;10.78;57.45
15674;BME280;7937;48.090;16.212;2023-02-21T17:15:48;97734.41;;;10.78;57.48
15674;BME280;7937;48.090;16.212;2023-02-21T17:18:51;97734.66;;;10.76;57.39
15674;BME280;7937;48.090;16.212;2023-02-21T17:21:53;97707.84;;;10.49;57.91
15674;BME280;7937;48.090;16.212;2023-02-21T17:24:59;97733.38;;;10.62;57.87
15674;BME280;7937;48.090;16.212;2023-02-21T17:28:02;97744.81;;;10.63;58.42
15674;BME280;7937;48.090;16.212;2023-02-21T17:31:04;97736.13;;;10.67;58.15
15674;BME280;7937;48.090;16.212;2023-02-21T17:34:07;97751.28;;;10.67;58.46
15674;BME280;7937;48.090;16.212;2023-02-21T17:37:10;97722.88;;;10.55;58.06
15674;BME280;7937;48.090;16.212;2023-02-21T17:40:13;97747.44;;;10.74;57.89
15674;BME280;7937;48.090;16.212;2023-02-21T17:43:15;97746.78;;;10.67;57.99
15674;BME280;7937;48.090;16.212;2023-02-21T17:46:19;97741.28;;;10.57;58.45
15674;BME280;7937;48.090;16.212;2023-02-21T17:49:24;97746.97;;;10.49;58.98
15674;BME280;7937;48.090;16.212;2023-02-21T17:52:28;97713.59;;;10.29;59.18
15674;BME280;7937;48.090;16.212;2023-02-21T17:55:31;97747.13;;;10.42;58.86
15674;BME280;7937;48.090;16.212;2023-02-21T17:58:34;97747.38;;;10.41;59.31
15674;BME280;7937;48.090;16.212;2023-02-21T18:01:37;97746.84;;;10.27;59.38
15674;BME280;7937;48.090;16.212;2023-02-21T18:04:40;97744.88;;;10.22;59.62
15674;BME280;7937;48.090;16.212;2023-02-21T18:07:50;97750.66;;;10.19;59.86
15674;BME280;7937;48.090;16.212;2023-02-21T18:10:54;97751.84;;;10.12;60.58
15674;BME280;7937;48.090;16.212;2023-02-21T18:13:57;97764.44;;;10.28;59.92
15674;BME280;7937;48.090;16.212;2023-02-21T18:17:01;97744.31;;;10.20;59.68
15674;BME280;7937;48.090;16.212;2023-02-21T18:20:07;97766.41;;;10.32;59.70
15674;BME280;7937;48.090;16.212;2023-02-21T18:23:11;97762.84;;;10.27;59.84
15674;BME280;7937;48.090;16.212;2023-02-21T18:26:15;97764.53;;;10.33;59.78
15674;BME280;7937;48.090;16.212;2023-02-21T18:29:18;97766.63;;;10.31;59.61
15674;BME280;7937;48.090;16.212;2023-02-21T18:32:23;97757.03;;;10.18;59.96
15674;BME280;7937;48.090;16.212;2023-02-21T18:35:26;97729.16;;;9.80;60.35
15674;BME280;7937;48.090;16.212;2023-02-21T18:38:30;97766.97;;;9.82;60.75
15674;BME280;7937;48.090;16.212;2023-02-21T18:41:35;97709.81;;;9.33;61.03